createdAt,value
2018-05-23T00:02:19.776Z,93.20
2018-05-23T00:04:48.468Z,93.10
2018-05-23T00:07:16.752Z,93.30
2018-05-23T00:09:45.004Z,93.30
2018-05-23T00:12:14.033Z,93.40
2018-05-23T00:14:42.279Z,93.40
2018-05-23T00:17:11.319Z,93.70
2018-05-23T00:19:39.564Z,93.70
2018-05-23T00:22:09.325Z,93.60
2018-05-23T00:24:37.588Z,93.60
2018-05-23T00:27:05.857Z,93.40
2018-05-23T00:29:34.726Z,93.40
2018-05-23T00:32:04.344Z,93.00
2018-05-23T00:34:33.352Z,92.60
2018-05-23T00:37:01.620Z,92.50
2018-05-23T00:39:30.633Z,92.60
2018-05-23T00:41:58.912Z,92.60
2018-05-23T00:44:27.149Z,92.80
2018-05-23T00:46:55.511Z,92.60
2018-05-23T00:49:23.776Z,92.70
2018-05-23T00:51:52.052Z,92.90
2018-05-23T00:54:20.322Z,92.90
2018-05-23T00:56:48.673Z,92.90
2018-05-23T00:59:16.916Z,93.10
2018-05-23T01:01:45.196Z,93.00
2018-05-23T01:04:13.441Z,93.20
2018-05-23T01:06:42.471Z,93.10
2018-05-23T01:09:10.720Z,93.10
2018-05-23T01:11:40.148Z,93.10
2018-05-23T01:14:08.461Z,93.00
2018-05-23T01:16:36.704Z,93.00
2018-05-23T01:19:05.757Z,93.00
2018-05-23T01:21:33.999Z,93.20
2018-05-23T01:24:02.289Z,93.40
2018-05-23T01:26:30.569Z,93.40
2018-05-23T01:28:58.862Z,93.50
2018-05-23T01:31:27.109Z,93.80
2018-05-23T01:33:55.365Z,93.90
2018-05-23T01:36:24.392Z,94.20
2018-05-23T01:38:53.546Z,94.20
2018-05-23T01:41:21.805Z,94.30
2018-05-23T01:43:50.075Z,94.30
2018-05-23T01:46:18.767Z,94.30
2018-05-23T01:48:58.891Z,94.40
2018-05-23T01:51:27.145Z,94.20
2018-05-23T01:53:55.406Z,94.00
2018-05-23T01:56:23.646Z,94.00
2018-05-23T01:58:51.895Z,94.20
2018-05-23T02:01:21.761Z,94.10
2018-05-23T02:03:50.018Z,94.10
2018-05-23T02:06:18.259Z,94.30
2018-05-23T02:08:46.533Z,94.20
2018-05-23T02:11:14.779Z,94.30
2018-05-23T02:13:43.047Z,94.10
2018-05-23T02:16:11.313Z,94.10
2018-05-23T02:18:41.120Z,94.00
2018-05-23T02:21:10.142Z,94.40
2018-05-23T02:23:38.452Z,94.00
2018-05-23T02:26:06.699Z,94.00
2018-05-23T02:28:34.989Z,94.00
2018-05-23T02:31:03.240Z,93.90
2018-05-23T02:33:32.309Z,93.90
2018-05-23T02:36:00.560Z,93.90
2018-05-23T02:38:28.934Z,93.90
2018-05-23T02:40:57.190Z,93.90
2018-05-23T02:43:26.211Z,93.90
2018-05-23T02:45:54.452Z,94.20
2018-05-23T02:48:23.329Z,93.90
2018-05-23T02:50:51.577Z,94.00
2018-05-23T02:53:19.871Z,93.90
2018-05-23T02:55:48.132Z,94.00
2018-05-23T02:58:16.461Z,94.00
2018-05-23T03:00:46.292Z,94.00
2018-05-23T03:03:14.880Z,93.90
2018-05-23T03:05:43.572Z,93.90
2018-05-23T03:08:11.856Z,93.90
2018-05-23T03:10:40.140Z,94.00
2018-05-23T03:13:08.394Z,93.90
2018-05-23T03:15:36.669Z,94.10
2018-05-23T03:18:05.912Z,93.80
2018-05-23T03:20:34.927Z,94.10
2018-05-23T03:23:03.172Z,93.80
2018-05-23T03:25:31.524Z,93.70
2018-05-23T03:28:00.347Z,93.60
2018-05-23T03:30:28.604Z,93.60
2018-05-23T03:32:56.863Z,93.20
2018-05-23T03:35:25.124Z,92.60
2018-05-23T03:37:54.136Z,92.60
2018-05-23T03:40:22.416Z,92.60
2018-05-23T03:42:51.283Z,92.50
2018-05-23T03:45:19.548Z,92.10
2018-05-23T03:47:47.804Z,92.10
2018-05-23T03:50:16.932Z,92.80
2018-05-23T03:52:45.204Z,93.20
2018-05-23T03:55:13.441Z,93.10
2018-05-23T03:57:42.192Z,93.00
2018-05-23T04:00:31.184Z,93.20
2018-05-23T04:03:11.169Z,93.30
2018-05-23T04:05:51.242Z,93.20
2018-05-23T04:08:19.488Z,92.80
2018-05-23T04:10:47.778Z,92.80
2018-05-23T04:13:16.076Z,93.30
2018-05-23T04:15:44.387Z,93.50
2018-05-23T04:18:12.956Z,93.60
2018-05-23T04:20:41.202Z,93.40
2018-05-23T04:23:09.487Z,93.50
2018-05-23T04:25:37.752Z,93.60
2018-05-23T04:28:05.997Z,93.50
2018-05-23T04:30:35.627Z,93.10
2018-05-23T04:33:03.923Z,93.10
2018-05-23T04:35:32.183Z,93.20
2018-05-23T04:38:01.194Z,93.00
2018-05-23T04:40:29.466Z,93.00
2018-05-23T04:42:58.469Z,92.90
2018-05-23T04:45:26.767Z,92.90
2018-05-23T04:47:59.850Z,92.80
2018-05-23T04:50:28.104Z,92.90
2018-05-23T04:52:57.107Z,93.20
2018-05-23T04:55:27.100Z,93.30
2018-05-23T04:57:55.336Z,93.30
2018-05-23T05:00:23.605Z,93.30
2018-05-23T05:02:52.707Z,93.40
2018-05-23T05:05:20.968Z,93.40
2018-05-23T05:07:49.983Z,93.80
2018-05-23T05:10:18.273Z,93.80
2018-05-23T05:12:47.399Z,93.80
2018-05-23T05:15:15.691Z,93.70
2018-05-23T05:17:43.934Z,93.70
2018-05-23T05:20:12.210Z,93.20
2018-05-23T05:22:40.457Z,93.40
2018-05-23T05:25:08.731Z,93.60
2018-05-23T05:27:36.989Z,93.60
2018-05-23T05:30:05.264Z,93.40
2018-05-23T05:32:33.520Z,92.70
2018-05-23T05:35:02.397Z,93.00
2018-05-23T05:37:31.424Z,93.00
2018-05-23T05:39:59.756Z,93.00
2018-05-23T05:42:28.437Z,93.20
2018-05-23T05:44:56.677Z,93.40
2018-05-23T05:47:25.015Z,93.40
2018-05-23T05:49:53.292Z,93.30
2018-05-23T05:52:21.569Z,93.40
2018-05-23T05:54:49.829Z,93.40
2018-05-23T05:57:18.092Z,93.50
2018-05-23T05:59:46.368Z,93.50
2018-05-23T06:02:14.643Z,93.10
2018-05-23T06:04:42.908Z,92.70
2018-05-23T06:07:11.947Z,92.50
2018-05-23T06:09:40.296Z,92.50
2018-05-23T06:12:08.511Z,92.50
2018-05-23T06:14:36.763Z,92.60
2018-05-23T06:17:05.036Z,92.60
2018-05-23T06:19:34.096Z,92.00
2018-05-23T06:22:02.392Z,92.00
2018-05-23T06:24:30.660Z,92.00
2018-05-23T06:26:58.961Z,92.20
2018-05-23T06:29:27.200Z,92.10
2018-05-23T06:31:55.516Z,92.10
2018-05-23T06:34:23.748Z,91.80
2018-05-23T06:36:52.052Z,91.90
2018-05-23T06:39:20.284Z,91.80
2018-05-23T06:41:49.305Z,91.90
2018-05-23T06:44:17.576Z,91.90
2018-05-23T06:46:46.600Z,91.60
2018-05-23T06:49:14.855Z,91.60
2018-05-23T06:51:43.116Z,91.60
2018-05-23T06:54:12.130Z,91.40
2018-05-23T06:56:41.796Z,91.00
2018-05-23T06:59:10.056Z,91.10
2018-05-23T07:01:38.370Z,91.20
2018-05-23T07:04:06.880Z,91.20
2018-05-23T07:06:35.920Z,90.70
2018-05-23T07:09:04.220Z,90.70
2018-05-23T07:11:32.490Z,90.60
2018-05-23T07:14:01.003Z,90.90
2018-05-23T07:16:29.293Z,90.30
2018-05-23T07:18:57.590Z,90.30
2018-05-23T07:21:25.875Z,90.20
2018-05-23T07:23:54.940Z,90.30
2018-05-23T07:26:23.178Z,90.20
2018-05-23T07:28:51.479Z,90.00
2018-05-23T07:31:19.779Z,89.70
2018-05-23T07:33:48.040Z,88.20
2018-05-23T07:36:16.288Z,88.00
2018-05-23T07:38:45.324Z,86.00
2018-05-23T07:41:13.574Z,85.90
2018-05-23T07:43:42.464Z,85.30
2018-05-23T07:46:11.480Z,83.50
2018-05-23T07:48:39.753Z,83.40
2018-05-23T07:51:08.767Z,83.40
2018-05-23T07:53:37.780Z,83.40
2018-05-23T07:56:06.053Z,80.30
2018-05-23T07:58:34.323Z,80.80
2018-05-23T08:01:02.646Z,78.70
2018-05-23T08:03:31.012Z,76.60
2018-05-23T08:05:59.263Z,78.20
2018-05-23T08:08:27.524Z,77.50
2018-05-23T08:10:56.547Z,74.50
2018-05-23T08:13:24.800Z,74.50
2018-05-23T08:15:53.824Z,72.80
2018-05-23T08:18:22.110Z,72.80
2018-05-23T08:20:50.366Z,72.10
2018-05-23T08:23:19.435Z,72.00
2018-05-23T08:25:47.671Z,72.00
2018-05-23T08:28:15.963Z,70.50
2018-05-23T08:30:44.210Z,68.30
2018-05-23T08:33:13.708Z,65.90
2018-05-23T08:35:41.944Z,65.80
2018-05-23T08:38:10.221Z,64.70
2018-05-23T08:40:39.384Z,63.70
2018-05-23T08:43:09.168Z,60.50
2018-05-23T08:45:37.420Z,60.50
2018-05-23T08:48:05.690Z,61.60
2018-05-23T08:50:34.582Z,62.50
2018-05-23T08:53:03.670Z,60.00
2018-05-23T08:55:32.699Z,60.30
2018-05-23T08:58:00.971Z,60.30
2018-05-23T09:00:29.256Z,60.00
2018-05-23T09:02:57.573Z,60.20
2018-05-23T09:05:26.087Z,59.70
2018-05-23T09:07:55.142Z,60.50
2018-05-23T09:10:23.400Z,60.40
2018-05-23T09:12:51.684Z,60.40
2018-05-23T09:15:19.932Z,60.20
2018-05-23T09:17:48.990Z,60.30
2018-05-23T09:20:17.253Z,60.20
2018-05-23T09:22:45.529Z,59.40
2018-05-23T09:25:14.080Z,59.00
2018-05-23T09:27:42.348Z,59.40
2018-05-23T09:30:10.642Z,59.70
2018-05-23T09:32:38.900Z,60.00
2018-05-23T09:35:07.219Z,59.50
2018-05-23T09:37:36.224Z,59.90
2018-05-23T09:40:05.266Z,59.90
2018-05-23T09:42:33.510Z,58.40
2018-05-23T09:45:01.875Z,61.00
2018-05-23T09:47:30.090Z,59.80
2018-05-23T09:49:58.333Z,57.90
2018-05-23T09:52:28.160Z,58.10
2018-05-23T09:54:57.230Z,58.00
2018-05-23T09:57:25.498Z,57.90
2018-05-23T09:59:53.768Z,56.90
2018-05-23T10:02:22.053Z,56.70
2018-05-23T10:04:50.288Z,55.60
2018-05-23T10:07:19.275Z,55.80
2018-05-23T10:09:49.182Z,54.50
2018-05-23T10:12:18.212Z,54.50
2018-05-23T10:14:46.607Z,54.20
2018-05-23T10:17:15.344Z,53.30
2018-05-23T10:19:43.602Z,53.00
2018-05-23T10:22:11.905Z,53.30
2018-05-23T10:24:40.192Z,53.30
2018-05-23T10:27:08.461Z,53.90
2018-05-23T10:29:37.132Z,54.30
2018-05-23T10:32:05.457Z,53.80
2018-05-23T10:34:33.845Z,53.90
2018-05-23T10:37:02.869Z,54.40
2018-05-23T10:39:31.100Z,54.40
2018-05-23T10:41:59.360Z,53.70
2018-05-23T10:44:27.876Z,55.10
2018-05-23T10:46:56.130Z,55.90
2018-05-23T10:49:24.375Z,56.10
2018-05-23T10:51:53.377Z,57.60
2018-05-23T10:54:21.936Z,57.60
2018-05-23T10:56:50.176Z,58.20
2018-05-23T10:59:18.536Z,58.50
2018-05-23T11:01:48.234Z,59.60
2018-05-23T11:04:16.496Z,60.00
2018-05-23T11:06:45.512Z,63.00
2018-05-23T11:09:14.552Z,64.00
2018-05-23T11:11:42.796Z,63.90
2018-05-23T11:14:11.064Z,63.60
2018-05-23T11:16:40.718Z,64.30
2018-05-23T11:19:09.615Z,64.30
2018-05-23T11:21:37.854Z,64.40
2018-05-23T11:24:06.868Z,63.30
2018-05-23T11:26:35.163Z,63.40
2018-05-23T11:29:03.462Z,64.70
2018-05-23T11:31:32.079Z,64.30
2018-05-23T11:34:00.372Z,63.90
2018-05-23T11:36:28.660Z,62.30
2018-05-23T11:38:57.685Z,61.90
2018-05-23T11:41:26.709Z,62.00
2018-05-23T11:43:54.943Z,62.20
2018-05-23T11:46:24.039Z,61.90
2018-05-23T11:48:52.244Z,61.90
2018-05-23T11:51:20.492Z,63.10
2018-05-23T11:53:48.853Z,63.30
2018-05-23T11:56:17.138Z,64.90
2018-05-23T11:58:45.407Z,65.10
2018-05-23T12:01:13.890Z,65.30
2018-05-23T12:03:42.161Z,66.00
2018-05-23T12:06:10.404Z,67.80
2018-05-23T12:08:39.672Z,67.90
2018-05-23T12:11:07.954Z,68.00
2018-05-23T12:13:36.193Z,68.40
2018-05-23T12:16:04.447Z,69.60
2018-05-23T12:18:33.488Z,68.40
2018-05-23T12:21:03.172Z,68.40
2018-05-23T12:23:32.195Z,66.70
2018-05-23T12:26:01.131Z,66.70
2018-05-23T12:28:29.978Z,68.70
2018-05-23T12:30:58.991Z,67.00
2018-05-23T12:33:27.227Z,67.00
2018-05-23T12:35:56.258Z,66.40
2018-05-23T12:38:24.500Z,66.50
2018-05-23T12:40:53.717Z,66.40
2018-05-23T12:43:21.933Z,66.30
2018-05-23T12:45:50.208Z,66.90
2018-05-23T12:48:18.761Z,66.70
2018-05-23T12:50:47.035Z,66.70
2018-05-23T12:53:16.061Z,65.40
2018-05-23T12:55:44.320Z,65.80
2018-05-23T12:58:13.335Z,62.90
2018-05-23T13:00:42.339Z,63.60
2018-05-23T13:03:10.597Z,63.70
2018-05-23T13:05:39.633Z,65.10
2018-05-23T13:08:08.919Z,65.10
2018-05-23T13:10:37.189Z,64.50
2018-05-23T13:13:06.213Z,62.90
2018-05-23T13:15:34.550Z,62.90
2018-05-23T13:18:02.789Z,63.20
2018-05-23T13:20:31.052Z,62.70
2018-05-23T13:22:59.292Z,63.10
2018-05-23T13:25:27.762Z,62.70
2018-05-23T13:27:56.005Z,63.20
2018-05-23T13:30:24.269Z,62.00
2018-05-23T13:32:53.276Z,62.10
2018-05-23T13:35:21.555Z,62.10
2018-05-23T13:37:49.822Z,62.20
2018-05-23T13:40:19.036Z,62.00
2018-05-23T13:42:47.313Z,61.90
2018-05-23T13:45:15.565Z,61.30
2018-05-23T13:47:43.838Z,61.10
2018-05-23T13:50:12.117Z,59.60
2018-05-23T13:52:40.387Z,59.70
2018-05-23T13:55:08.716Z,58.70
2018-05-23T13:57:36.973Z,59.00
2018-05-23T14:00:05.221Z,58.20
2018-05-23T14:02:34.075Z,56.80
2018-05-23T14:05:03.093Z,54.60
2018-05-23T14:07:32.105Z,55.00
2018-05-23T14:10:00.355Z,55.00
2018-05-23T14:12:29.411Z,53.20
2018-05-23T14:14:57.659Z,53.20
2018-05-23T14:17:25.935Z,51.80
2018-05-23T14:19:54.189Z,53.20
2018-05-23T14:22:23.225Z,50.80
2018-05-23T14:24:52.187Z,50.70
2018-05-23T14:27:21.223Z,52.30
2018-05-23T14:29:49.701Z,52.30
2018-05-23T14:32:18.678Z,52.30
2018-05-23T14:34:47.384Z,51.90
2018-05-23T14:37:15.649Z,51.30
2018-05-23T14:39:43.919Z,50.30
2018-05-23T14:42:13.028Z,50.20
2018-05-23T14:44:42.628Z,50.10
2018-05-23T14:47:11.700Z,50.90
2018-05-23T14:49:39.971Z,50.80
2018-05-23T14:52:08.236Z,51.40
2018-05-23T14:54:36.520Z,51.80
2018-05-23T14:57:04.803Z,52.20
2018-05-23T14:59:33.069Z,51.70
2018-05-23T15:02:01.325Z,52.00
2018-05-23T15:04:30.893Z,53.30
2018-05-23T15:06:59.640Z,53.30
2018-05-23T15:09:27.896Z,53.20
2018-05-23T15:11:57.638Z,53.00
2018-05-23T15:14:25.980Z,52.90
2018-05-23T15:16:54.141Z,54.30
2018-05-23T15:19:22.397Z,53.90
2018-05-23T15:21:50.652Z,54.30
2018-05-23T15:24:19.265Z,54.90
2018-05-23T15:26:47.552Z,54.90
2018-05-23T15:29:15.798Z,55.00
2018-05-23T15:31:44.849Z,54.80
2018-05-23T15:34:13.111Z,54.70
2018-05-23T15:36:41.360Z,55.90
2018-05-23T15:39:10.479Z,56.80
2018-05-23T15:41:38.791Z,56.80
2018-05-23T15:44:07.052Z,55.70
2018-05-23T15:46:35.918Z,55.60
2018-05-23T15:49:04.959Z,56.30
2018-05-23T15:51:33.212Z,55.80
2018-05-23T15:54:01.976Z,55.40
2018-05-23T15:56:30.565Z,54.40
2018-05-23T15:58:58.877Z,54.90
2018-05-23T16:01:27.915Z,55.50
2018-05-23T16:03:56.175Z,55.60
2018-05-23T16:06:25.304Z,56.20
2018-05-23T16:08:53.575Z,56.20
2018-05-23T16:11:21.890Z,55.20
2018-05-23T16:13:50.151Z,53.40
2018-05-23T16:16:18.380Z,53.70
2018-05-23T16:18:46.641Z,55.40
2018-05-23T16:21:15.637Z,54.40
2018-05-23T16:23:44.694Z,56.30
2018-05-23T16:26:12.964Z,56.30
2018-05-23T16:28:41.229Z,54.30
2018-05-23T16:31:09.513Z,55.50
2018-05-23T16:33:37.813Z,55.00
2018-05-23T16:36:06.888Z,55.00
2018-05-23T16:38:36.197Z,55.50
2018-05-23T16:41:04.444Z,55.40
2018-05-23T16:43:33.491Z,54.00
2018-05-23T16:46:01.730Z,54.00
2018-05-23T16:48:30.764Z,53.70
2018-05-23T16:51:06.233Z,53.60
2018-05-23T16:53:34.717Z,52.50
2018-05-23T16:56:02.953Z,52.30
2018-05-23T16:58:32.013Z,53.60
2018-05-23T17:01:00.265Z,53.60
2018-05-23T17:03:28.601Z,54.00
2018-05-23T17:05:56.918Z,53.60
2018-05-23T17:08:25.152Z,52.80
2018-05-23T17:10:53.910Z,52.90
2018-05-23T17:13:22.164Z,53.30
2018-05-23T17:15:50.434Z,53.00
2018-05-23T17:18:19.424Z,53.40
2018-05-23T17:20:48.551Z,52.50
2018-05-23T17:23:17.500Z,52.50
2018-05-23T17:25:45.752Z,52.00
2018-05-23T17:28:15.695Z,52.50
2018-05-23T17:30:43.965Z,52.50
2018-05-23T17:33:12.263Z,53.30
2018-05-23T17:35:40.494Z,53.90
2018-05-23T17:38:08.799Z,53.20
2018-05-23T17:40:37.085Z,53.50
2018-05-23T17:43:05.356Z,53.60
2018-05-23T17:45:33.609Z,54.30
2018-05-23T17:48:01.860Z,54.40
2018-05-23T17:50:30.111Z,54.30
2018-05-23T17:52:58.735Z,54.40
2018-05-23T17:55:26.988Z,54.70
2018-05-23T17:57:55.837Z,54.40
2018-05-23T18:00:24.095Z,55.40
2018-05-23T18:02:53.224Z,54.30
2018-05-23T18:05:22.181Z,54.30
2018-05-23T18:07:51.343Z,55.40
2018-05-23T18:10:19.600Z,55.70
2018-05-23T18:12:47.852Z,54.90
2018-05-23T18:15:16.132Z,55.40
2018-05-23T18:17:45.239Z,55.20
2018-05-23T18:20:13.434Z,54.80
2018-05-23T18:22:42.468Z,55.70
2018-05-23T18:25:10.726Z,55.70
2018-05-23T18:27:39.488Z,55.70
2018-05-23T18:30:09.036Z,55.20
2018-05-23T18:32:39.254Z,55.30
2018-05-23T18:35:07.530Z,54.90
2018-05-23T18:37:35.783Z,54.30
2018-05-23T18:40:04.072Z,55.00
2018-05-23T18:42:33.292Z,55.20
2018-05-23T18:45:02.939Z,55.60
2018-05-23T18:47:31.551Z,55.60
2018-05-23T18:50:00.115Z,56.20
2018-05-23T18:52:28.363Z,56.00
2018-05-23T18:54:58.457Z,56.10
2018-05-23T18:57:27.185Z,56.10
2018-05-23T18:59:55.436Z,56.10
2018-05-23T19:02:24.456Z,56.60
2018-05-23T19:04:52.710Z,56.60
2018-05-23T19:07:21.904Z,57.20
2018-05-23T19:09:51.805Z,56.40
2018-05-23T19:12:20.073Z,56.50
2018-05-23T19:14:48.594Z,56.70
2018-05-23T19:17:17.673Z,56.90
2018-05-23T19:19:45.907Z,56.60
2018-05-23T19:22:14.904Z,57.10
2018-05-23T19:24:44.784Z,57.00
2018-05-23T19:27:14.731Z,57.20
2018-05-23T19:29:43.886Z,56.80
2018-05-23T19:32:12.155Z,57.20
2018-05-23T19:34:40.420Z,58.00
2018-05-23T19:37:08.690Z,57.60
2018-05-23T19:39:37.766Z,58.00
2018-05-23T19:42:05.995Z,58.30
2018-05-23T19:44:34.312Z,58.60
2018-05-23T19:47:02.551Z,57.70
2018-05-23T19:49:30.816Z,58.20
2018-05-23T19:51:59.552Z,59.00
2018-05-23T19:54:27.812Z,57.40
2018-05-23T19:56:56.168Z,59.40
2018-05-23T19:59:25.200Z,59.40
2018-05-23T20:01:54.225Z,59.40
2018-05-23T20:04:22.474Z,59.30
2018-05-23T20:06:50.746Z,59.90
2018-05-23T20:09:19.028Z,61.10
2018-05-23T20:11:47.561Z,60.70
2018-05-23T20:14:16.521Z,60.20
2018-05-23T20:16:44.569Z,61.50
2018-05-23T20:19:13.577Z,60.00
2018-05-23T20:21:42.113Z,60.00
2018-05-23T20:24:10.396Z,61.70
2018-05-23T20:26:38.653Z,63.40
2018-05-23T20:29:06.892Z,61.90
2018-05-23T20:31:35.932Z,63.20
2018-05-23T20:34:04.160Z,63.20
2018-05-23T20:36:33.268Z,65.10
2018-05-23T20:39:02.313Z,65.20
2018-05-23T20:41:30.541Z,64.50
2018-05-23T20:43:59.560Z,65.50
2018-05-23T20:46:27.819Z,64.90
2018-05-23T20:48:57.180Z,63.40
2018-05-23T20:51:25.419Z,63.30
2018-05-23T20:53:54.511Z,64.70
2018-05-23T20:56:23.540Z,65.30
2018-05-23T20:58:52.455Z,65.20
2018-05-23T21:01:20.677Z,64.90
2018-05-23T21:03:49.264Z,64.70
2018-05-23T21:06:17.598Z,65.80
2018-05-23T21:08:45.954Z,65.70
2018-05-23T21:11:14.957Z,65.50
2018-05-23T21:13:43.848Z,65.50
2018-05-23T21:16:13.627Z,66.20
2018-05-23T21:18:41.900Z,66.10
2018-05-23T21:21:10.935Z,66.20
2018-05-23T21:23:40.806Z,66.80
2018-05-23T21:26:09.075Z,66.40
2018-05-23T21:28:37.365Z,64.70
2018-05-23T21:31:05.603Z,66.70
2018-05-23T21:33:34.616Z,67.70
2018-05-23T21:36:03.798Z,67.60
2018-05-23T21:38:32.840Z,66.70
2018-05-23T21:41:02.289Z,67.80
2018-05-23T21:43:30.555Z,67.90
2018-05-23T21:45:58.911Z,66.20
2018-05-23T21:48:27.175Z,66.50
2018-05-23T21:50:55.463Z,64.80
2018-05-23T21:53:23.740Z,66.60
2018-05-23T21:55:51.971Z,64.20
2018-05-23T21:58:20.212Z,64.50
2018-05-23T22:00:49.032Z,65.20
2018-05-23T22:03:17.323Z,64.40
2018-05-23T22:05:45.564Z,64.50
2018-05-23T22:08:13.821Z,66.20
2018-05-23T22:10:42.819Z,64.50
2018-05-23T22:13:11.163Z,64.50
2018-05-23T22:15:39.402Z,65.10
2018-05-23T22:18:07.659Z,65.70
2018-05-23T22:20:36.676Z,64.40
2018-05-23T22:23:05.001Z,64.40
2018-05-23T22:25:33.241Z,66.60
2018-05-23T22:28:01.508Z,64.70
2018-05-23T22:30:30.504Z,65.80
2018-05-23T22:32:59.526Z,64.70
2018-05-23T22:35:27.760Z,64.40
2018-05-23T22:37:56.623Z,66.40
2018-05-23T22:40:25.126Z,66.70
2018-05-23T22:42:53.383Z,67.00
2018-05-23T22:45:21.667Z,66.70
2018-05-23T22:47:49.901Z,65.10
2018-05-23T22:50:18.928Z,67.00
2018-05-23T22:52:47.186Z,67.00
2018-05-23T22:55:16.204Z,65.60
2018-05-23T22:57:44.451Z,65.50
2018-05-23T23:00:28.488Z,67.60
2018-05-23T23:02:56.832Z,67.50
2018-05-23T23:05:25.092Z,68.10
2018-05-23T23:07:53.320Z,66.00
2018-05-23T23:10:21.588Z,68.00
2018-05-23T23:12:49.851Z,67.20
2018-05-23T23:15:18.687Z,69.30
2018-05-23T23:17:47.696Z,68.50
2018-05-23T23:20:17.449Z,68.50
2018-05-23T23:22:46.142Z,68.50
2018-05-23T23:25:14.395Z,67.00
2018-05-23T23:27:43.101Z,66.90
2018-05-23T23:30:11.272Z,67.30
2018-05-23T23:32:39.527Z,68.20
2018-05-23T23:35:09.323Z,67.40
2018-05-23T23:37:37.591Z,67.30
2018-05-23T23:40:05.831Z,66.40
2018-05-23T23:42:34.093Z,67.70
2018-05-23T23:45:03.120Z,67.40
2018-05-23T23:47:31.348Z,67.30
2018-05-23T23:49:59.675Z,67.80
2018-05-23T23:52:27.937Z,68.10
2018-05-23T23:54:57.078Z,68.00
2018-05-23T23:57:26.799Z,68.00
2018-05-23T23:59:55.054Z,67.80
